AirNav   Everest Fuels
 
 1349 users online  

40OK Hilltop Airport
Oilton, Oklahoma, USA

GOING TO OILTON?


FAA INFORMATION EFFECTIVE 01 DECEMBER 2022

Location

FAA Identifier: 40OK
Lat/Long: 36-06-57.8400N 096-32-17.0700W
36-06.964000N 096-32.284500W
36.1160667,-96.5380750
(estimated)
Elevation: 930 ft. / 283 m (estimated)
Variation: 06E (1995)
From city: 3 miles NE of OILTON, OK
Time zone: UTC -6 (UTC -5 during Daylight Saving Time)
Zip code: 74052

Airport Operations

Airport use: Private use. Permission required prior to landing
Activation date: 01/1998
Control tower: no
ARTCC: KANSAS CITY CENTER
FSS: MC ALESTER FLIGHT SERVICE STATION
Attendance: UNATNDD
Segmented circle: no

Airport Communications

WX AWOS-3PT at CUH (15 nm SW): 118.25 ((918) 225-6072)
WX AWOS-3 at OWP (19 nm E): 118.325 (918-246-2635)

Nearby radio navigation aids

VOR radial/distance  VOR name  Freq  Var
SWOr097/27.1STILLWATER VOR/DME108.4007E
TULr254/36.6TULSA VORTAC114.4008E

Airport Services

Runway Information

Runway 17/35

Dimensions: 2300 x 65 ft. / 701 x 20 m
Surface: turf
RUNWAY 17  RUNWAY 35
Traffic pattern: leftleft

Airport Ownership and Management from official FAA records

Ownership: Privately-owned
Owner: FRANK SCHUETTE
48816 W. 31ST ST.
JENNINGS, OK 74038
Phone 918-282-2801
Manager: FRANK SCHUETTE
48816 W. 31ST ST.
JENNINGS, OK 74038
Phone 918-282-2801

Additional Remarks

FOR CD CTC KANSAS CITY ARTCC AT 913-254-8508.

Instrument Procedures

There are no published instrument procedures at 40OK.

Some nearby airports with instrument procedures:

KCUH - Cushing Municipal Airport (15 nm SW)
KOWP - William R Pogue Municipal Airport (19 nm E)
3F7 - Jones Memorial Airport (19 nm S)
KSWO - Stillwater Regional Airport (27 nm W)
KCQB - Chandler Regional Airport (27 nm SW)
 
Loc | Ops | Rwys | IFR | FBO | Links
Com | Nav | Svcs | Stats | Notes
Area around 40OK (Hilltop Airport)
 
Road maps at: MapQuest Bing Google
 
Aerial photo
No photo
 
Sectional chart

 
Airport distance calculator
Flying to Hilltop Airport? Find the distance to fly.

From to 40OK

Sunrise and sunset
Times for 02-Dec-2022
 Local
(UTC-6)
 Zulu
(UTC)
Morning civil twilight06:5212:52
Sunrise07:2013:20
Sunset17:1123:11
Evening civil twilight17:3923:39

Current date and time
Zulu (UTC)  02-Dec-2022 15:40:37
Local (UTC-6)  02-Dec-2022 09:40:37
 
METAR
KCUH 
15nm SW 
021515Z AUTO 19014G18KT 10SM OVC007 10/09 A2993 RMK AO2 T01020092
KOWP 
19nm E 
021515Z AUTO 19013G18KT 10SM OVC014 11/08 A2997 RMK AO2 T01100078
KSWO 
27nm W 
021453Z 19019G26KT 10SM OVC009 12/09 A2991 RMK AO2 PK WND 19026/1451 SLP128 T01170094 58009
KRVS 
27nm E 
021453Z 19013G24KT 10SM OVC015 10/06 A2997 RMK AO2 PK WND 19027/1430 SLP152 T01000061 56014
KCQB 
28nm SW 
021510Z AUTO 19016G22KT 5SM BR OVC005 10/09 A2997 RMK AO2 T00980088
TAF
KSWO 
27nm W 
021120Z 0212/0312 18015KT 6SM BR OVC008 TEMPO 0212/0216 5SM -DZ BR OVC008 FM021600 20019G32KT P6SM BKN015 FM022200 20012KT P6SM SCT200 FM030300 35018G35KT P6SM SCT250 WS020/36060KT FM030900 01011G18KT P6SM SCT250 WS020/36060KT
KRVS 
27nm E 
021121Z 0212/0312 18013G22KT P6SM OVC025 FM021600 20020G34KT P6SM OVC015 FM022000 20019G30KT P6SM BKN040 FM030100 20010G17KT P6SM BKN250 FM030300 25011KT P6SM BKN250 FM030500 36020G30KT P6SM BKN250 FM031000 35013G21KT P6SM SCT250
KTUL 
32nm E 
021121Z 0212/0312 18015G25KT P6SM OVC025 FM021600 20023G37KT P6SM OVC015 FM022000 20022G34KT P6SM BKN040 FM030100 20010G21KT P6SM BKN250 FM030300 25014KT P6SM BKN250 FM030500 36022G32KT P6SM BKN250 FM031000 35015G23KT P6SM SCT250
NOTAMs
Click for the latest NOTAMs
NOTAMs are issued by the DoD/FAA and will open in a separate window not controlled by AirNav.

 

 
 

Would you like to see your business listed on this page?

 If your business provides an interesting product or service to pilots, flight crews, aircraft, or users of the Hilltop Airport, you should consider listing it here.  To start the listing process, click on the button below
 
Add a business
 

Other Pages about Hilltop Airport

Update a link
 
Copyright © AirNav, LLC. All rights reserved. Privacy Policy  Contact